sensor_id;sensor_type;location;lat;lon;timestamp;P1;durP1;ratioP1;P2;durP2;ratioP2
54919;SDS011;63804;53.120;8.764;2023-03-31T00:02:17;15.07;;;3.35;;
54919;SDS011;63804;53.120;8.764;2023-03-31T00:04:46;16.85;;;3.67;;
54919;SDS011;63804;53.120;8.764;2023-03-31T00:07:17;15.93;;;3.50;;
54919;SDS011;63804;53.120;8.764;2023-03-31T00:09:49;13.85;;;3.97;;
54919;SDS011;63804;53.120;8.764;2023-03-31T00:12:19;17.70;;;3.88;;
54919;SDS011;63804;53.120;8.764;2023-03-31T00:14:45;14.07;;;3.92;;
54919;SDS011;63804;53.120;8.764;2023-03-31T00:17:10;13.85;;;3.40;;
54919;SDS011;63804;53.120;8.764;2023-03-31T00:19:36;17.08;;;3.95;;
54919;SDS011;63804;53.120;8.764;2023-03-31T00:22:02;15.52;;;3.78;;
54919;SDS011;63804;53.120;8.764;2023-03-31T00:24:29;15.38;;;3.47;;
54919;SDS011;63804;53.120;8.764;2023-03-31T00:26:58;12.23;;;4.00;;
54919;SDS011;63804;53.120;8.764;2023-03-31T00:29:28;15.20;;;3.80;;
54919;SDS011;63804;53.120;8.764;2023-03-31T00:31:53;13.88;;;3.50;;
54919;SDS011;63804;53.120;8.764;2023-03-31T00:34:19;14.63;;;3.60;;
54919;SDS011;63804;53.120;8.764;2023-03-31T00:36:45;13.38;;;3.15;;
54919;SDS011;63804;53.120;8.764;2023-03-31T00:39:12;13.68;;;3.55;;
54919;SDS011;63804;53.120;8.764;2023-03-31T00:41:39;14.90;;;4.15;;
54919;SDS011;63804;53.120;8.764;2023-03-31T00:44:16;13.63;;;4.25;;
54919;SDS011;63804;53.120;8.764;2023-03-31T00:49:45;11.63;;;3.22;;
54919;SDS011;63804;53.120;8.764;2023-03-31T00:52:18;12.68;;;4.05;;
54919;SDS011;63804;53.120;8.764;2023-03-31T00:54:48;14.90;;;3.70;;
54919;SDS011;63804;53.120;8.764;2023-03-31T00:57:18;15.02;;;3.83;;
54919;SDS011;63804;53.120;8.764;2023-03-31T00:59:46;12.25;;;3.70;;
54919;SDS011;63804;53.120;8.764;2023-03-31T01:02:20;13.02;;;3.92;;
54919;SDS011;63804;53.120;8.764;2023-03-31T01:04:51;14.55;;;3.63;;
54919;SDS011;63804;53.120;8.764;2023-03-31T01:07:42;12.02;;;3.83;;
54919;SDS011;63804;53.120;8.764;2023-03-31T01:10:10;13.73;;;3.47;;
54919;SDS011;63804;53.120;8.764;2023-03-31T01:12:40;13.27;;;3.58;;
54919;SDS011;63804;53.120;8.764;2023-03-31T01:15:09;15.18;;;4.57;;
54919;SDS011;63804;53.120;8.764;2023-03-31T01:17:34;15.50;;;4.07;;
54919;SDS011;63804;53.120;8.764;2023-03-31T01:20:19;14.73;;;3.70;;
54919;SDS011;63804;53.120;8.764;2023-03-31T01:23:07;13.27;;;3.38;;
54919;SDS011;63804;53.120;8.764;2023-03-31T01:28:32;13.27;;;3.50;;
54919;SDS011;63804;53.120;8.764;2023-03-31T01:47:51;13.93;;;3.63;;
54919;SDS011;63804;53.120;8.764;2023-03-31T01:50:30;12.18;;;4.15;;
54919;SDS011;63804;53.120;8.764;2023-03-31T01:53:08;16.08;;;4.13;;
54919;SDS011;63804;53.120;8.764;2023-03-31T01:58:28;14.48;;;3.83;;
54919;SDS011;63804;53.120;8.764;2023-03-31T02:01:05;15.60;;;3.70;;
54919;SDS011;63804;53.120;8.764;2023-03-31T02:03:39;15.55;;;3.85;;
54919;SDS011;63804;53.120;8.764;2023-03-31T02:06:23;16.80;;;4.10;;
54919;SDS011;63804;53.120;8.764;2023-03-31T02:08:55;18.13;;;4.05;;
54919;SDS011;63804;53.120;8.764;2023-03-31T02:11:24;16.17;;;4.18;;
54919;SDS011;63804;53.120;8.764;2023-03-31T02:13:54;15.65;;;4.07;;
54919;SDS011;63804;53.120;8.764;2023-03-31T02:16:22;16.08;;;4.60;;
54919;SDS011;63804;53.120;8.764;2023-03-31T02:18:52;16.35;;;4.15;;
54919;SDS011;63804;53.120;8.764;2023-03-31T02:21:33;13.18;;;4.10;;
54919;SDS011;63804;53.120;8.764;2023-03-31T02:24:03;14.48;;;3.50;;
54919;SDS011;63804;53.120;8.764;2023-03-31T02:26:34;13.52;;;4.00;;
54919;SDS011;63804;53.120;8.764;2023-03-31T02:29:04;16.38;;;4.47;;
54919;SDS011;63804;53.120;8.764;2023-03-31T02:31:51;15.63;;;4.35;;
54919;SDS011;63804;53.120;8.764;2023-03-31T02:36:50;12.60;;;3.72;;
54919;SDS011;63804;53.120;8.764;2023-03-31T02:39:17;12.63;;;3.80;;
54919;SDS011;63804;53.120;8.764;2023-03-31T02:41:48;14.65;;;3.90;;
54919;SDS011;63804;53.120;8.764;2023-03-31T02:44:14;15.23;;;3.88;;
54919;SDS011;63804;53.120;8.764;2023-03-31T02:46:41;13.57;;;3.95;;
54919;SDS011;63804;53.120;8.764;2023-03-31T02:49:07;13.82;;;3.65;;
54919;SDS011;63804;53.120;8.764;2023-03-31T02:57:07;13.43;;;3.65;;
54919;SDS011;63804;53.120;8.764;2023-03-31T03:00:19;13.35;;;3.58;;
54919;SDS011;63804;53.120;8.764;2023-03-31T03:05:42;14.05;;;3.75;;
54919;SDS011;63804;53.120;8.764;2023-03-31T03:16:09;14.75;;;3.92;;
54919;SDS011;63804;53.120;8.764;2023-03-31T03:18:56;13.40;;;3.28;;
54919;SDS011;63804;53.120;8.764;2023-03-31T03:21:23;14.00;;;3.30;;
54919;SDS011;63804;53.120;8.764;2023-03-31T03:23:48;13.02;;;3.80;;
54919;SDS011;63804;53.120;8.764;2023-03-31T03:26:15;13.57;;;3.40;;
54919;SDS011;63804;53.120;8.764;2023-03-31T03:28:46;13.63;;;3.70;;
54919;SDS011;63804;53.120;8.764;2023-03-31T03:31:13;17.60;;;4.65;;
54919;SDS011;63804;53.120;8.764;2023-03-31T03:33:40;13.57;;;3.70;;
54919;SDS011;63804;53.120;8.764;2023-03-31T03:36:06;11.25;;;3.60;;
54919;SDS011;63804;53.120;8.764;2023-03-31T03:38:32;12.63;;;3.65;;
54919;SDS011;63804;53.120;8.764;2023-03-31T03:40:57;11.05;;;3.22;;
54919;SDS011;63804;53.120;8.764;2023-03-31T03:43:23;15.60;;;3.67;;
54919;SDS011;63804;53.120;8.764;2023-03-31T03:45:50;11.10;;;3.25;;
54919;SDS011;63804;53.120;8.764;2023-03-31T03:48:16;14.30;;;3.58;;
54919;SDS011;63804;53.120;8.764;2023-03-31T03:50:42;11.98;;;3.05;;
54919;SDS011;63804;53.120;8.764;2023-03-31T03:53:10;11.88;;;3.50;;
54919;SDS011;63804;53.120;8.764;2023-03-31T03:55:35;12.23;;;3.10;;
54919;SDS011;63804;53.120;8.764;2023-03-31T03:58:01;13.05;;;3.10;;
54919;SDS011;63804;53.120;8.764;2023-03-31T04:00:26;10.85;;;2.90;;
54919;SDS011;63804;53.120;8.764;2023-03-31T04:02:52;12.73;;;3.08;;
54919;SDS011;63804;53.120;8.764;2023-03-31T04:05:17;10.98;;;2.80;;
54919;SDS011;63804;53.120;8.764;2023-03-31T04:07:43;12.25;;;3.10;;
54919;SDS011;63804;53.120;8.764;2023-03-31T04:10:09;11.85;;;2.85;;
54919;SDS011;63804;53.120;8.764;2023-03-31T04:12:35;16.48;;;3.10;;
54919;SDS011;63804;53.120;8.764;2023-03-31T04:15:00;9.23;;;2.60;;
54919;SDS011;63804;53.120;8.764;2023-03-31T04:17:26;8.80;;;2.55;;
54919;SDS011;63804;53.120;8.764;2023-03-31T04:20:08;13.27;;;2.90;;
54919;SDS011;63804;53.120;8.764;2023-03-31T04:22:36;9.63;;;2.72;;
54919;SDS011;63804;53.120;8.764;2023-03-31T04:25:09;14.50;;;2.90;;
54919;SDS011;63804;53.120;8.764;2023-03-31T04:27:43;11.30;;;2.83;;
54919;SDS011;63804;53.120;8.764;2023-03-31T04:30:15;10.88;;;2.85;;
54919;SDS011;63804;53.120;8.764;2023-03-31T04:32:48;12.00;;;2.75;;
54919;SDS011;63804;53.120;8.764;2023-03-31T04:35:22;12.68;;;2.83;;
54919;SDS011;63804;53.120;8.764;2023-03-31T04:37:49;10.77;;;2.88;;
54919;SDS011;63804;53.120;8.764;2023-03-31T04:40:23;13.52;;;3.13;;
54919;SDS011;63804;53.120;8.764;2023-03-31T04:42:49;15.35;;;3.25;;
54919;SDS011;63804;53.120;8.764;2023-03-31T04:45:15;11.00;;;2.80;;
54919;SDS011;63804;53.120;8.764;2023-03-31T04:47:41;14.85;;;3.30;;
54919;SDS011;63804;53.120;8.764;2023-03-31T04:50:08;12.45;;;2.97;;
54919;SDS011;63804;53.120;8.764;2023-03-31T04:52:35;11.27;;;3.40;;
54919;SDS011;63804;53.120;8.764;2023-03-31T04:55:01;12.20;;;2.90;;
54919;SDS011;63804;53.120;8.764;2023-03-31T04:57:27;11.95;;;3.13;;
54919;SDS011;63804;53.120;8.764;2023-03-31T04:59:59;11.43;;;3.45;;
54919;SDS011;63804;53.120;8.764;2023-03-31T05:02:25;13.50;;;3.65;;
54919;SDS011;63804;53.120;8.764;2023-03-31T05:04:50;15.85;;;4.05;;
54919;SDS011;63804;53.120;8.764;2023-03-31T05:07:17;15.00;;;4.18;;
54919;SDS011;63804;53.120;8.764;2023-03-31T05:09:43;13.00;;;4.18;;
54919;SDS011;63804;53.120;8.764;2023-03-31T05:12:09;13.60;;;4.20;;
54919;SDS011;63804;53.120;8.764;2023-03-31T05:14:41;17.50;;;4.85;;
54919;SDS011;63804;53.120;8.764;2023-03-31T05:17:07;15.70;;;4.80;;
54919;SDS011;63804;53.120;8.764;2023-03-31T05:19:33;15.80;;;5.30;;
54919;SDS011;63804;53.120;8.764;2023-03-31T05:21:58;12.82;;;4.70;;
54919;SDS011;63804;53.120;8.764;2023-03-31T05:24:24;15.05;;;5.35;;
54919;SDS011;63804;53.120;8.764;2023-03-31T05:26:52;14.45;;;6.10;;
54919;SDS011;63804;53.120;8.764;2023-03-31T05:29:18;13.65;;;4.95;;
54919;SDS011;63804;53.120;8.764;2023-03-31T05:31:44;16.75;;;5.97;;
54919;SDS011;63804;53.120;8.764;2023-03-31T05:34:10;14.23;;;5.47;;
54919;SDS011;63804;53.120;8.764;2023-03-31T05:36:36;16.15;;;5.75;;
54919;SDS011;63804;53.120;8.764;2023-03-31T05:39:02;11.55;;;5.85;;
54919;SDS011;63804;53.120;8.764;2023-03-31T05:41:29;14.98;;;6.00;;
54919;SDS011;63804;53.120;8.764;2023-03-31T05:43:54;16.10;;;5.97;;
54919;SDS011;63804;53.120;8.764;2023-03-31T05:46:20;14.80;;;5.68;;
54919;SDS011;63804;53.120;8.764;2023-03-31T05:48:45;13.32;;;6.15;;
54919;SDS011;63804;53.120;8.764;2023-03-31T05:51:11;15.02;;;6.18;;
54919;SDS011;63804;53.120;8.764;2023-03-31T05:53:36;12.77;;;5.90;;
54919;SDS011;63804;53.120;8.764;2023-03-31T05:56:03;15.77;;;6.30;;
54919;SDS011;63804;53.120;8.764;2023-03-31T05:58:32;17.42;;;5.93;;
54919;SDS011;63804;53.120;8.764;2023-03-31T06:01:00;15.48;;;6.40;;
54919;SDS011;63804;53.120;8.764;2023-03-31T06:03:30;18.80;;;6.53;;
54919;SDS011;63804;53.120;8.764;2023-03-31T06:05:57;19.52;;;6.82;;
54919;SDS011;63804;53.120;8.764;2023-03-31T06:08:23;13.38;;;6.00;;
54919;SDS011;63804;53.120;8.764;2023-03-31T06:10:49;13.63;;;6.13;;
54919;SDS011;63804;53.120;8.764;2023-03-31T06:13:15;18.52;;;6.82;;
54919;SDS011;63804;53.120;8.764;2023-03-31T06:15:40;15.25;;;6.75;;
54919;SDS011;63804;53.120;8.764;2023-03-31T06:18:06;13.90;;;6.43;;
54919;SDS011;63804;53.120;8.764;2023-03-31T06:20:34;17.42;;;7.28;;
54919;SDS011;63804;53.120;8.764;2023-03-31T06:23:00;14.82;;;6.50;;
54919;SDS011;63804;53.120;8.764;2023-03-31T06:25:26;15.50;;;6.53;;
54919;SDS011;63804;53.120;8.764;2023-03-31T06:27:52;16.98;;;7.07;;
54919;SDS011;63804;53.120;8.764;2023-03-31T06:30:17;17.13;;;7.75;;
54919;SDS011;63804;53.120;8.764;2023-03-31T06:32:43;14.77;;;7.22;;
54919;SDS011;63804;53.120;8.764;2023-03-31T06:35:08;15.77;;;6.70;;
54919;SDS011;63804;53.120;8.764;2023-03-31T06:37:34;15.63;;;6.40;;
54919;SDS011;63804;53.120;8.764;2023-03-31T06:40:00;12.80;;;6.43;;
54919;SDS011;63804;53.120;8.764;2023-03-31T06:42:25;13.40;;;6.35;;
54919;SDS011;63804;53.120;8.764;2023-03-31T06:44:51;16.30;;;7.18;;
54919;SDS011;63804;53.120;8.764;2023-03-31T06:47:16;16.70;;;6.60;;
54919;SDS011;63804;53.120;8.764;2023-03-31T06:49:42;13.23;;;5.72;;
54919;SDS011;63804;53.120;8.764;2023-03-31T06:52:07;15.60;;;6.53;;
54919;SDS011;63804;53.120;8.764;2023-03-31T06:54:33;13.27;;;6.22;;
54919;SDS011;63804;53.120;8.764;2023-03-31T06:56:58;16.15;;;6.60;;
54919;SDS011;63804;53.120;8.764;2023-03-31T06:59:24;16.42;;;5.97;;
54919;SDS011;63804;53.120;8.764;2023-03-31T07:01:49;15.35;;;6.07;;
54919;SDS011;63804;53.120;8.764;2023-03-31T07:04:15;12.75;;;6.00;;
54919;SDS011;63804;53.120;8.764;2023-03-31T07:06:41;14.00;;;6.50;;
54919;SDS011;63804;53.120;8.764;2023-03-31T07:09:06;16.05;;;6.35;;
54919;SDS011;63804;53.120;8.764;2023-03-31T07:11:41;13.75;;;6.50;;
54919;SDS011;63804;53.120;8.764;2023-03-31T07:14:13;12.27;;;5.88;;
54919;SDS011;63804;53.120;8.764;2023-03-31T07:16:46;12.02;;;5.47;;
54919;SDS011;63804;53.120;8.764;2023-03-31T07:19:12;12.30;;;5.75;;
54919;SDS011;63804;53.120;8.764;2023-03-31T07:21:39;11.13;;;5.90;;
54919;SDS011;63804;53.120;8.764;2023-03-31T07:24:05;11.82;;;5.78;;
54919;SDS011;63804;53.120;8.764;2023-03-31T07:26:31;13.80;;;6.25;;
54919;SDS011;63804;53.120;8.764;2023-03-31T07:28:56;12.48;;;5.68;;
54919;SDS011;63804;53.120;8.764;2023-03-31T07:31:23;11.60;;;5.80;;
54919;SDS011;63804;53.120;8.764;2023-03-31T07:33:48;10.75;;;5.47;;
54919;SDS011;63804;53.120;8.764;2023-03-31T07:36:14;11.73;;;6.43;;
54919;SDS011;63804;53.120;8.764;2023-03-31T07:38:43;14.32;;;6.18;;
54919;SDS011;63804;53.120;8.764;2023-03-31T07:41:11;11.65;;;5.93;;
54919;SDS011;63804;53.120;8.764;2023-03-31T07:43:37;13.73;;;5.53;;
54919;SDS011;63804;53.120;8.764;2023-03-31T07:46:04;13.50;;;5.50;;
54919;SDS011;63804;53.120;8.764;2023-03-31T07:48:31;13.07;;;6.05;;
54919;SDS011;63804;53.120;8.764;2023-03-31T07:50:58;12.95;;;5.70;;
54919;SDS011;63804;53.120;8.764;2023-03-31T07:53:24;12.57;;;6.03;;
54919;SDS011;63804;53.120;8.764;2023-03-31T07:55:49;13.77;;;6.22;;
54919;SDS011;63804;53.120;8.764;2023-03-31T07:58:15;12.52;;;5.97;;
54919;SDS011;63804;53.120;8.764;2023-03-31T08:00:40;12.13;;;6.10;;
54919;SDS011;63804;53.120;8.764;2023-03-31T08:03:06;10.90;;;5.65;;
54919;SDS011;63804;53.120;8.764;2023-03-31T08:05:31;12.30;;;6.38;;
54919;SDS011;63804;53.120;8.764;2023-03-31T08:07:57;11.52;;;6.10;;
54919;SDS011;63804;53.120;8.764;2023-03-31T08:10:24;12.05;;;6.63;;
54919;SDS011;63804;53.120;8.764;2023-03-31T08:12:50;11.32;;;5.75;;
54919;SDS011;63804;53.120;8.764;2023-03-31T08:15:16;14.48;;;6.65;;
54919;SDS011;63804;53.120;8.764;2023-03-31T08:17:45;14.90;;;6.65;;
54919;SDS011;63804;53.120;8.764;2023-03-31T08:20:11;12.38;;;6.50;;
54919;SDS011;63804;53.120;8.764;2023-03-31T08:22:37;12.43;;;6.13;;
54919;SDS011;63804;53.120;8.764;2023-03-31T08:25:04;12.07;;;6.10;;
54919;SDS011;63804;53.120;8.764;2023-03-31T08:27:36;10.50;;;5.63;;
54919;SDS011;63804;53.120;8.764;2023-03-31T08:30:03;11.48;;;6.00;;
54919;SDS011;63804;53.120;8.764;2023-03-31T08:32:31;14.25;;;6.60;;
54919;SDS011;63804;53.120;8.764;2023-03-31T08:34:57;14.20;;;6.68;;
54919;SDS011;63804;53.120;8.764;2023-03-31T08:37:23;11.25;;;5.97;;
54919;SDS011;63804;53.120;8.764;2023-03-31T08:39:49;11.95;;;5.82;;
54919;SDS011;63804;53.120;8.764;2023-03-31T08:42:15;9.80;;;4.85;;
54919;SDS011;63804;53.120;8.764;2023-03-31T08:48:07;10.88;;;4.63;;
54919;SDS011;63804;53.120;8.764;2023-03-31T08:50:44;10.50;;;4.78;;
54919;SDS011;63804;53.120;8.764;2023-03-31T08:55:51;9.85;;;4.20;;
54919;SDS011;63804;53.120;8.764;2023-03-31T08:58:32;10.68;;;4.53;;
54919;SDS011;63804;53.120;8.764;2023-03-31T09:04:16;11.93;;;4.80;;
54919;SDS011;63804;53.120;8.764;2023-03-31T09:06:37;12.27;;;4.30;;
54919;SDS011;63804;53.120;8.764;2023-03-31T09:09:51;13.07;;;4.20;;
54919;SDS011;63804;53.120;8.764;2023-03-31T09:15:43;9.60;;;4.13;;
54919;SDS011;63804;53.120;8.764;2023-03-31T09:18:18;10.52;;;4.30;;
54919;SDS011;63804;53.120;8.764;2023-03-31T09:20:52;13.18;;;3.83;;
54919;SDS011;63804;53.120;8.764;2023-03-31T09:23:26;8.98;;;3.30;;
54919;SDS011;63804;53.120;8.764;2023-03-31T09:25:56;11.18;;;3.85;;
54919;SDS011;63804;53.120;8.764;2023-03-31T09:28:29;7.95;;;3.03;;
54919;SDS011;63804;53.120;8.764;2023-03-31T09:30:59;8.98;;;3.55;;
54919;SDS011;63804;53.120;8.764;2023-03-31T09:33:30;9.27;;;3.42;;
54919;SDS011;63804;53.120;8.764;2023-03-31T09:36:02;12.25;;;4.30;;
54919;SDS011;63804;53.120;8.764;2023-03-31T09:38:39;10.60;;;4.05;;
54919;SDS011;63804;53.120;8.764;2023-03-31T09:41:07;11.38;;;3.80;;
54919;SDS011;63804;53.120;8.764;2023-03-31T09:43:33;10.65;;;3.58;;
54919;SDS011;63804;53.120;8.764;2023-03-31T09:46:15;8.90;;;3.28;;
54919;SDS011;63804;53.120;8.764;2023-03-31T09:48:47;9.18;;;3.40;;
54919;SDS011;63804;53.120;8.764;2023-03-31T09:51:19;8.60;;;3.20;;
54919;SDS011;63804;53.120;8.764;2023-03-31T09:53:59;9.18;;;3.30;;
54919;SDS011;63804;53.120;8.764;2023-03-31T09:59:11;8.85;;;3.10;;
54919;SDS011;63804;53.120;8.764;2023-03-31T10:01:43;10.02;;;3.80;;
54919;SDS011;63804;53.120;8.764;2023-03-31T10:04:15;10.63;;;3.60;;
54919;SDS011;63804;53.120;8.764;2023-03-31T10:06:52;10.63;;;3.70;;
54919;SDS011;63804;53.120;8.764;2023-03-31T10:09:19;7.95;;;3.58;;
54919;SDS011;63804;53.120;8.764;2023-03-31T10:11:54;11.13;;;3.25;;
54919;SDS011;63804;53.120;8.764;2023-03-31T10:14:26;11.93;;;3.15;;
54919;SDS011;63804;53.120;8.764;2023-03-31T10:16:58;10.68;;;3.80;;
54919;SDS011;63804;53.120;8.764;2023-03-31T10:19:29;7.25;;;3.42;;
54919;SDS011;63804;53.120;8.764;2023-03-31T10:22:04;9.15;;;3.70;;
54919;SDS011;63804;53.120;8.764;2023-03-31T10:24:51;12.20;;;3.85;;
54919;SDS011;63804;53.120;8.764;2023-03-31T10:27:25;18.70;;;7.00;;
54919;SDS011;63804;53.120;8.764;2023-03-31T10:29:53;10.95;;;4.13;;
54919;SDS011;63804;53.120;8.764;2023-03-31T10:32:22;8.90;;;3.40;;
54919;SDS011;63804;53.120;8.764;2023-03-31T10:34:51;9.90;;;3.28;;
54919;SDS011;63804;53.120;8.764;2023-03-31T10:37:18;7.22;;;3.08;;
54919;SDS011;63804;53.120;8.764;2023-03-31T10:39:48;9.77;;;3.35;;
54919;SDS011;63804;53.120;8.764;2023-03-31T10:42:21;8.48;;;2.92;;
54919;SDS011;63804;53.120;8.764;2023-03-31T10:44:48;7.68;;;2.72;;
54919;SDS011;63804;53.120;8.764;2023-03-31T10:49:40;7.75;;;2.60;;
54919;SDS011;63804;53.120;8.764;2023-03-31T10:52:23;8.80;;;3.40;;
54919;SDS011;63804;53.120;8.764;2023-03-31T10:54:57;9.90;;;2.80;;
54919;SDS011;63804;53.120;8.764;2023-03-31T10:57:28;9.52;;;2.83;;
54919;SDS011;63804;53.120;8.764;2023-03-31T11:00:30;8.75;;;3.17;;
54919;SDS011;63804;53.120;8.764;2023-03-31T11:03:15;7.53;;;2.97;;
54919;SDS011;63804;53.120;8.764;2023-03-31T11:06:09;11.40;;;3.25;;
54919;SDS011;63804;53.120;8.764;2023-03-31T11:17:16;6.63;;;2.97;;
54919;SDS011;63804;53.120;8.764;2023-03-31T11:19:52;8.10;;;2.70;;
54919;SDS011;63804;53.120;8.764;2023-03-31T11:22:30;8.75;;;2.67;;
54919;SDS011;63804;53.120;8.764;2023-03-31T11:30:21;6.82;;;2.70;;
54919;SDS011;63804;53.120;8.764;2023-03-31T11:41:04;5.93;;;2.33;;
54919;SDS011;63804;53.120;8.764;2023-03-31T11:46:04;7.90;;;2.88;;
54919;SDS011;63804;53.120;8.764;2023-03-31T11:48:53;5.60;;;2.80;;
54919;SDS011;63804;53.120;8.764;2023-03-31T11:51:31;4.93;;;2.38;;
54919;SDS011;63804;53.120;8.764;2023-03-31T11:54:19;7.05;;;2.55;;
54919;SDS011;63804;53.120;8.764;2023-03-31T11:56:59;3.75;;;2.08;;
54919;SDS011;63804;53.120;8.764;2023-03-31T11:59:31;8.03;;;2.57;;
54919;SDS011;63804;53.120;8.764;2023-03-31T12:12:58;2.08;;;1.38;;
54919;SDS011;63804;53.120;8.764;2023-03-31T12:15:32;2.78;;;1.42;;
54919;SDS011;63804;53.120;8.764;2023-03-31T12:18:13;5.07;;;1.50;;
54919;SDS011;63804;53.120;8.764;2023-03-31T12:20:44;2.47;;;1.33;;
54919;SDS011;63804;53.120;8.764;2023-03-31T12:23:16;2.92;;;1.23;;
54919;SDS011;63804;53.120;8.764;2023-03-31T12:25:48;4.43;;;1.58;;
54919;SDS011;63804;53.120;8.764;2023-03-31T12:28:18;3.03;;;1.48;;
54919;SDS011;63804;53.120;8.764;2023-03-31T12:30:45;2.80;;;1.60;;
54919;SDS011;63804;53.120;8.764;2023-03-31T12:33:24;6.53;;;1.90;;
54919;SDS011;63804;53.120;8.764;2023-03-31T12:36:06;4.40;;;1.73;;
54919;SDS011;63804;53.120;8.764;2023-03-31T12:38:45;4.90;;;1.48;;
54919;SDS011;63804;53.120;8.764;2023-03-31T12:49:18;5.28;;;1.50;;
54919;SDS011;63804;53.120;8.764;2023-03-31T12:51:59;2.10;;;1.27;;
54919;SDS011;63804;53.120;8.764;2023-03-31T12:57:36;4.55;;;1.33;;
54919;SDS011;63804;53.120;8.764;2023-03-31T13:02:32;4.03;;;1.50;;
54919;SDS011;63804;53.120;8.764;2023-03-31T13:04:57;3.05;;;1.50;;
54919;SDS011;63804;53.120;8.764;2023-03-31T13:09:58;2.90;;;1.33;;
54919;SDS011;63804;53.120;8.764;2023-03-31T13:15:29;4.03;;;1.42;;
54919;SDS011;63804;53.120;8.764;2023-03-31T13:18:00;4.93;;;1.60;;
54919;SDS011;63804;53.120;8.764;2023-03-31T13:20:34;5.93;;;2.20;;
54919;SDS011;63804;53.120;8.764;2023-03-31T13:23:03;3.40;;;1.40;;
54919;SDS011;63804;53.120;8.764;2023-03-31T13:28:12;4.53;;;1.08;;
54919;SDS011;63804;53.120;8.764;2023-03-31T13:30:49;3.85;;;1.30;;
54919;SDS011;63804;53.120;8.764;2023-03-31T13:35:47;6.05;;;1.42;;
54919;SDS011;63804;53.120;8.764;2023-03-31T13:52:09;4.47;;;1.63;;
54919;SDS011;63804;53.120;8.764;2023-03-31T14:08:52;7.75;;;1.80;;
54919;SDS011;63804;53.120;8.764;2023-03-31T14:11:28;4.13;;;1.75;;
54919;SDS011;63804;53.120;8.764;2023-03-31T14:16:24;5.53;;;2.05;;
54919;SDS011;63804;53.120;8.764;2023-03-31T14:18:50;4.95;;;2.17;;
54919;SDS011;63804;53.120;8.764;2023-03-31T14:21:32;4.47;;;1.95;;
54919;SDS011;63804;53.120;8.764;2023-03-31T14:24:49;4.82;;;2.00;;
54919;SDS011;63804;53.120;8.764;2023-03-31T14:27:07;6.10;;;1.80;;
54919;SDS011;63804;53.120;8.764;2023-03-31T14:33:08;6.63;;;2.33;;
54919;SDS011;63804;53.120;8.764;2023-03-31T14:36:12;6.50;;;1.80;;
54919;SDS011;63804;53.120;8.764;2023-03-31T14:38:43;3.78;;;1.70;;
54919;SDS011;63804;53.120;8.764;2023-03-31T14:41:14;4.22;;;1.52;;
54919;SDS011;63804;53.120;8.764;2023-03-31T14:43:46;4.15;;;1.23;;
54919;SDS011;63804;53.120;8.764;2023-03-31T14:46:17;4.88;;;1.42;;
54919;SDS011;63804;53.120;8.764;2023-03-31T14:48:46;5.45;;;1.48;;
54919;SDS011;63804;53.120;8.764;2023-03-31T14:51:13;3.40;;;1.30;;
54919;SDS011;63804;53.120;8.764;2023-03-31T14:53:40;4.10;;;1.50;;
54919;SDS011;63804;53.120;8.764;2023-03-31T14:58:45;6.05;;;1.50;;
54919;SDS011;63804;53.120;8.764;2023-03-31T15:01:14;5.97;;;2.13;;
54919;SDS011;63804;53.120;8.764;2023-03-31T15:03:43;5.75;;;1.77;;
54919;SDS011;63804;53.120;8.764;2023-03-31T15:06:10;5.75;;;2.10;;
54919;SDS011;63804;53.120;8.764;2023-03-31T15:08:37;7.20;;;2.13;;
54919;SDS011;63804;53.120;8.764;2023-03-31T15:11:05;8.00;;;2.00;;
54919;SDS011;63804;53.120;8.764;2023-03-31T15:13:39;7.47;;;2.42;;
54919;SDS011;63804;53.120;8.764;2023-03-31T15:16:45;8.88;;;2.30;;
54919;SDS011;63804;53.120;8.764;2023-03-31T15:19:18;9.93;;;2.88;;
54919;SDS011;63804;53.120;8.764;2023-03-31T15:24:45;6.50;;;2.42;;
54919;SDS011;63804;53.120;8.764;2023-03-31T15:27:15;8.80;;;3.13;;
54919;SDS011;63804;53.120;8.764;2023-03-31T15:29:48;7.03;;;2.40;;
54919;SDS011;63804;53.120;8.764;2023-03-31T15:32:22;7.93;;;2.15;;
54919;SDS011;63804;53.120;8.764;2023-03-31T15:37:19;6.78;;;2.08;;
54919;SDS011;63804;53.120;8.764;2023-03-31T15:39:48;7.90;;;2.17;;
54919;SDS011;63804;53.120;8.764;2023-03-31T15:42:14;4.75;;;1.58;;
54919;SDS011;63804;53.120;8.764;2023-03-31T15:44:43;6.43;;;1.75;;
54919;SDS011;63804;53.120;8.764;2023-03-31T15:50:09;11.73;;;3.50;;
54919;SDS011;63804;53.120;8.764;2023-03-31T15:52:36;11.02;;;2.80;;
54919;SDS011;63804;53.120;8.764;2023-03-31T15:57:55;10.05;;;2.83;;
54919;SDS011;63804;53.120;8.764;2023-03-31T16:03:04;8.90;;;2.38;;
54919;SDS011;63804;53.120;8.764;2023-03-31T16:05:39;6.68;;;1.73;;
54919;SDS011;63804;53.120;8.764;2023-03-31T16:08:10;6.47;;;1.92;;
54919;SDS011;63804;53.120;8.764;2023-03-31T16:10:39;6.80;;;2.00;;
54919;SDS011;63804;53.120;8.764;2023-03-31T16:13:05;7.47;;;1.90;;
54919;SDS011;63804;53.120;8.764;2023-03-31T16:15:34;5.68;;;1.73;;
54919;SDS011;63804;53.120;8.764;2023-03-31T16:18:04;7.70;;;1.75;;
54919;SDS011;63804;53.120;8.764;2023-03-31T16:20:37;7.93;;;1.80;;
54919;SDS011;63804;53.120;8.764;2023-03-31T16:23:13;6.43;;;1.73;;
54919;SDS011;63804;53.120;8.764;2023-03-31T16:25:47;5.97;;;1.65;;
54919;SDS011;63804;53.120;8.764;2023-03-31T16:28:17;6.65;;;1.60;;
54919;SDS011;63804;53.120;8.764;2023-03-31T16:33:13;7.13;;;1.85;;
54919;SDS011;63804;53.120;8.764;2023-03-31T16:35:43;3.92;;;1.50;;
54919;SDS011;63804;53.120;8.764;2023-03-31T16:38:13;8.60;;;2.08;;
54919;SDS011;63804;53.120;8.764;2023-03-31T16:40:44;6.78;;;2.00;;
54919;SDS011;63804;53.120;8.764;2023-03-31T16:45:51;7.10;;;2.03;;
54919;SDS011;63804;53.120;8.764;2023-03-31T16:48:22;6.38;;;2.15;;
54919;SDS011;63804;53.120;8.764;2023-03-31T16:50:49;6.88;;;2.15;;
54919;SDS011;63804;53.120;8.764;2023-03-31T16:53:21;8.48;;;2.40;;
54919;SDS011;63804;53.120;8.764;2023-03-31T16:55:52;7.90;;;2.33;;
54919;SDS011;63804;53.120;8.764;2023-03-31T16:58:18;5.47;;;1.90;;
54919;SDS011;63804;53.120;8.764;2023-03-31T17:00:44;5.95;;;2.08;;
54919;SDS011;63804;53.120;8.764;2023-03-31T17:03:10;8.90;;;2.45;;
54919;SDS011;63804;53.120;8.764;2023-03-31T17:05:45;12.13;;;3.85;;
54919;SDS011;63804;53.120;8.764;2023-03-31T17:08:12;8.57;;;2.58;;
54919;SDS011;63804;53.120;8.764;2023-03-31T17:10:40;8.10;;;2.42;;
54919;SDS011;63804;53.120;8.764;2023-03-31T17:13:06;6.30;;;2.17;;
54919;SDS011;63804;53.120;8.764;2023-03-31T17:15:33;7.13;;;2.20;;
54919;SDS011;63804;53.120;8.764;2023-03-31T17:18:02;5.25;;;1.98;;
54919;SDS011;63804;53.120;8.764;2023-03-31T17:20:29;8.60;;;2.38;;
54919;SDS011;63804;53.120;8.764;2023-03-31T17:22:55;6.82;;;2.28;;
54919;SDS011;63804;53.120;8.764;2023-03-31T17:25:21;7.88;;;3.00;;
54919;SDS011;63804;53.120;8.764;2023-03-31T17:27:47;6.97;;;2.70;;
54919;SDS011;63804;53.120;8.764;2023-03-31T17:30:13;6.78;;;2.80;;
54919;SDS011;63804;53.120;8.764;2023-03-31T17:32:39;6.32;;;2.47;;
54919;SDS011;63804;53.120;8.764;2023-03-31T17:35:05;9.05;;;2.70;;
54919;SDS011;63804;53.120;8.764;2023-03-31T17:37:32;10.65;;;2.85;;
54919;SDS011;63804;53.120;8.764;2023-03-31T17:39:58;8.65;;;3.08;;
54919;SDS011;63804;53.120;8.764;2023-03-31T17:42:23;10.05;;;3.67;;
54919;SDS011;63804;53.120;8.764;2023-03-31T17:44:49;9.00;;;3.90;;
54919;SDS011;63804;53.120;8.764;2023-03-31T17:47:16;10.43;;;3.90;;
54919;SDS011;63804;53.120;8.764;2023-03-31T17:49:43;10.60;;;3.75;;
54919;SDS011;63804;53.120;8.764;2023-03-31T17:52:08;10.75;;;3.70;;
54919;SDS011;63804;53.120;8.764;2023-03-31T17:54:35;9.02;;;4.18;;
54919;SDS011;63804;53.120;8.764;2023-03-31T17:57:01;9.15;;;3.65;;